sensor_id;sensor_type;location;lat;lon;timestamp;P1;durP1;ratioP1;P2;durP2;ratioP2
18544;SDS011;9402;51.460;7.276;2023-12-07T00:01:58;86.53;;;43.85;;
18544;SDS011;9402;51.460;7.276;2023-12-07T00:04:00;106.38;;;44.95;;
18544;SDS011;9402;51.460;7.276;2023-12-07T00:06:03;106.43;;;47.05;;
18544;SDS011;9402;51.460;7.276;2023-12-07T00:08:05;97.90;;;44.10;;
18544;SDS011;9402;51.460;7.276;2023-12-07T00:10:07;98.25;;;46.40;;
18544;SDS011;9402;51.460;7.276;2023-12-07T00:12:08;108.90;;;45.67;;
18544;SDS011;9402;51.460;7.276;2023-12-07T00:14:10;100.10;;;45.22;;
18544;SDS011;9402;51.460;7.276;2023-12-07T00:16:12;110.32;;;46.92;;
18544;SDS011;9402;51.460;7.276;2023-12-07T00:18:14;94.18;;;46.10;;
18544;SDS011;9402;51.460;7.276;2023-12-07T00:20:15;80.80;;;40.80;;
18544;SDS011;9402;51.460;7.276;2023-12-07T00:22:18;93.97;;;42.85;;
18544;SDS011;9402;51.460;7.276;2023-12-07T00:24:20;91.70;;;44.75;;
18544;SDS011;9402;51.460;7.276;2023-12-07T00:26:22;91.43;;;42.15;;
18544;SDS011;9402;51.460;7.276;2023-12-07T00:28:23;119.00;;;45.05;;
18544;SDS011;9402;51.460;7.276;2023-12-07T00:30:25;120.00;;;44.75;;
18544;SDS011;9402;51.460;7.276;2023-12-07T00:32:26;91.43;;;44.90;;
18544;SDS011;9402;51.460;7.276;2023-12-07T00:34:28;95.63;;;45.05;;
18544;SDS011;9402;51.460;7.276;2023-12-07T00:36:30;88.72;;;43.60;;
18544;SDS011;9402;51.460;7.276;2023-12-07T00:38:32;92.82;;;44.78;;
18544;SDS011;9402;51.460;7.276;2023-12-07T00:40:33;109.40;;;47.13;;
18544;SDS011;9402;51.460;7.276;2023-12-07T00:42:36;109.32;;;50.00;;
18544;SDS011;9402;51.460;7.276;2023-12-07T00:44:39;100.35;;;47.40;;
18544;SDS011;9402;51.460;7.276;2023-12-07T00:46:40;90.00;;;45.53;;
18544;SDS011;9402;51.460;7.276;2023-12-07T00:48:42;100.15;;;44.92;;
18544;SDS011;9402;51.460;7.276;2023-12-07T00:50:43;79.25;;;43.38;;
18544;SDS011;9402;51.460;7.276;2023-12-07T00:52:45;109.35;;;48.47;;
18544;SDS011;9402;51.460;7.276;2023-12-07T00:54:48;88.20;;;43.72;;
18544;SDS011;9402;51.460;7.276;2023-12-07T00:56:49;96.05;;;44.95;;
18544;SDS011;9402;51.460;7.276;2023-12-07T00:58:51;133.55;;;53.05;;
18544;SDS011;9402;51.460;7.276;2023-12-07T01:00:53;90.70;;;43.50;;
18544;SDS011;9402;51.460;7.276;2023-12-07T01:02:54;98.18;;;45.95;;
18544;SDS011;9402;51.460;7.276;2023-12-07T01:04:55;89.25;;;44.47;;
18544;SDS011;9402;51.460;7.276;2023-12-07T01:06:57;89.40;;;42.40;;
18544;SDS011;9402;51.460;7.276;2023-12-07T01:08:58;102.25;;;47.17;;
18544;SDS011;9402;51.460;7.276;2023-12-07T01:11:01;99.13;;;46.53;;
18544;SDS011;9402;51.460;7.276;2023-12-07T01:13:03;110.43;;;46.55;;
18544;SDS011;9402;51.460;7.276;2023-12-07T01:15:05;114.43;;;48.83;;
18544;SDS011;9402;51.460;7.276;2023-12-07T01:17:06;92.10;;;46.47;;
18544;SDS011;9402;51.460;7.276;2023-12-07T01:19:08;110.03;;;46.00;;
18544;SDS011;9402;51.460;7.276;2023-12-07T01:21:09;100.32;;;46.08;;
18544;SDS011;9402;51.460;7.276;2023-12-07T01:23:12;102.65;;;47.50;;
18544;SDS011;9402;51.460;7.276;2023-12-07T01:25:13;111.90;;;46.92;;
18544;SDS011;9402;51.460;7.276;2023-12-07T01:27:21;90.60;;;42.10;;
18544;SDS011;9402;51.460;7.276;2023-12-07T01:29:23;108.97;;;45.22;;
18544;SDS011;9402;51.460;7.276;2023-12-07T01:31:24;115.63;;;49.05;;
18544;SDS011;9402;51.460;7.276;2023-12-07T01:33:26;95.32;;;45.85;;
18544;SDS011;9402;51.460;7.276;2023-12-07T01:35:27;93.70;;;44.83;;
18544;SDS011;9402;51.460;7.276;2023-12-07T01:37:29;87.25;;;41.47;;
18544;SDS011;9402;51.460;7.276;2023-12-07T01:39:31;101.18;;;45.30;;
18544;SDS011;9402;51.460;7.276;2023-12-07T01:41:31;99.80;;;44.03;;
18544;SDS011;9402;51.460;7.276;2023-12-07T01:43:35;96.32;;;43.95;;
18544;SDS011;9402;51.460;7.276;2023-12-07T01:45:36;95.82;;;43.33;;
18544;SDS011;9402;51.460;7.276;2023-12-07T01:47:38;87.80;;;40.67;;
18544;SDS011;9402;51.460;7.276;2023-12-07T01:49:39;86.93;;;40.60;;
18544;SDS011;9402;51.460;7.276;2023-12-07T01:51:40;103.78;;;45.22;;
18544;SDS011;9402;51.460;7.276;2023-12-07T01:53:42;94.38;;;42.00;;
18544;SDS011;9402;51.460;7.276;2023-12-07T01:55:43;93.93;;;42.40;;
18544;SDS011;9402;51.460;7.276;2023-12-07T01:57:45;85.35;;;38.67;;
18544;SDS011;9402;51.460;7.276;2023-12-07T01:59:48;111.00;;;44.85;;
18544;SDS011;9402;51.460;7.276;2023-12-07T02:01:48;113.60;;;45.05;;
18544;SDS011;9402;51.460;7.276;2023-12-07T02:03:50;96.40;;;43.90;;
18544;SDS011;9402;51.460;7.276;2023-12-07T02:05:52;95.75;;;45.70;;
18544;SDS011;9402;51.460;7.276;2023-12-07T02:07:54;89.65;;;41.33;;
18544;SDS011;9402;51.460;7.276;2023-12-07T02:09:55;79.47;;;38.93;;
18544;SDS011;9402;51.460;7.276;2023-12-07T02:11:58;87.63;;;41.45;;
18544;SDS011;9402;51.460;7.276;2023-12-07T02:14:00;80.10;;;37.10;;
18544;SDS011;9402;51.460;7.276;2023-12-07T02:16:06;105.25;;;42.83;;
18544;SDS011;9402;51.460;7.276;2023-12-07T02:18:11;100.10;;;41.67;;
18544;SDS011;9402;51.460;7.276;2023-12-07T02:20:17;90.75;;;39.47;;
18544;SDS011;9402;51.460;7.276;2023-12-07T02:22:22;103.88;;;41.30;;
18544;SDS011;9402;51.460;7.276;2023-12-07T02:24:27;84.28;;;40.17;;
18544;SDS011;9402;51.460;7.276;2023-12-07T02:26:32;97.93;;;41.67;;
18544;SDS011;9402;51.460;7.276;2023-12-07T02:28:34;79.80;;;38.83;;
18544;SDS011;9402;51.460;7.276;2023-12-07T02:30:36;95.47;;;40.80;;
18544;SDS011;9402;51.460;7.276;2023-12-07T02:32:37;93.28;;;42.17;;
18544;SDS011;9402;51.460;7.276;2023-12-07T02:34:39;99.97;;;40.20;;
18544;SDS011;9402;51.460;7.276;2023-12-07T02:36:41;92.72;;;38.10;;
18544;SDS011;9402;51.460;7.276;2023-12-07T02:38:45;84.53;;;38.40;;
18544;SDS011;9402;51.460;7.276;2023-12-07T02:40:47;92.82;;;41.08;;
18544;SDS011;9402;51.460;7.276;2023-12-07T02:42:51;86.18;;;40.10;;
18544;SDS011;9402;51.460;7.276;2023-12-07T02:44:52;85.60;;;38.95;;
18544;SDS011;9402;51.460;7.276;2023-12-07T02:46:53;84.60;;;37.88;;
18544;SDS011;9402;51.460;7.276;2023-12-07T02:48:56;85.90;;;41.67;;
18544;SDS011;9402;51.460;7.276;2023-12-07T02:50:58;96.72;;;40.78;;
18544;SDS011;9402;51.460;7.276;2023-12-07T02:52:59;91.53;;;42.05;;
18544;SDS011;9402;51.460;7.276;2023-12-07T02:55:01;120.75;;;47.22;;
18544;SDS011;9402;51.460;7.276;2023-12-07T02:57:03;93.15;;;43.53;;
18544;SDS011;9402;51.460;7.276;2023-12-07T02:59:07;112.65;;;45.88;;
18544;SDS011;9402;51.460;7.276;2023-12-07T03:01:08;121.88;;;47.00;;
18544;SDS011;9402;51.460;7.276;2023-12-07T03:03:10;121.68;;;47.55;;
18544;SDS011;9402;51.460;7.276;2023-12-07T03:05:11;92.38;;;39.67;;
18544;SDS011;9402;51.460;7.276;2023-12-07T03:07:13;80.38;;;37.17;;
18544;SDS011;9402;51.460;7.276;2023-12-07T03:09:15;89.85;;;41.10;;
18544;SDS011;9402;51.460;7.276;2023-12-07T03:11:15;94.67;;;40.63;;
18544;SDS011;9402;51.460;7.276;2023-12-07T03:13:17;83.20;;;37.28;;
18544;SDS011;9402;51.460;7.276;2023-12-07T03:15:20;93.03;;;39.80;;
18544;SDS011;9402;51.460;7.276;2023-12-07T03:17:21;72.63;;;36.38;;
18544;SDS011;9402;51.460;7.276;2023-12-07T03:19:23;68.38;;;34.47;;
18544;SDS011;9402;51.460;7.276;2023-12-07T03:21:25;65.72;;;33.72;;
18544;SDS011;9402;51.460;7.276;2023-12-07T03:23:27;83.43;;;37.08;;
18544;SDS011;9402;51.460;7.276;2023-12-07T03:25:28;69.97;;;34.60;;
18544;SDS011;9402;51.460;7.276;2023-12-07T03:27:30;74.35;;;35.03;;
18544;SDS011;9402;51.460;7.276;2023-12-07T03:29:32;70.38;;;33.25;;
18544;SDS011;9402;51.460;7.276;2023-12-07T03:31:35;78.53;;;36.17;;
18544;SDS011;9402;51.460;7.276;2023-12-07T03:33:36;89.93;;;36.63;;
18544;SDS011;9402;51.460;7.276;2023-12-07T03:35:38;90.45;;;36.33;;
18544;SDS011;9402;51.460;7.276;2023-12-07T03:37:40;87.90;;;36.85;;
18544;SDS011;9402;51.460;7.276;2023-12-07T03:39:41;85.80;;;35.45;;
18544;SDS011;9402;51.460;7.276;2023-12-07T03:41:43;60.67;;;32.95;;
18544;SDS011;9402;51.460;7.276;2023-12-07T03:43:44;71.25;;;33.72;;
18544;SDS011;9402;51.460;7.276;2023-12-07T03:45:46;82.95;;;35.47;;
18544;SDS011;9402;51.460;7.276;2023-12-07T03:47:48;73.73;;;32.57;;
18544;SDS011;9402;51.460;7.276;2023-12-07T03:49:49;70.88;;;33.65;;
18544;SDS011;9402;51.460;7.276;2023-12-07T03:51:51;78.03;;;33.40;;
18544;SDS011;9402;51.460;7.276;2023-12-07T03:53:53;76.10;;;34.55;;
18544;SDS011;9402;51.460;7.276;2023-12-07T03:55:53;65.40;;;32.70;;
18544;SDS011;9402;51.460;7.276;2023-12-07T03:57:55;61.45;;;31.45;;
18544;SDS011;9402;51.460;7.276;2023-12-07T03:59:56;80.87;;;33.77;;
18544;SDS011;9402;51.460;7.276;2023-12-07T04:01:57;76.40;;;34.63;;
18544;SDS011;9402;51.460;7.276;2023-12-07T04:04:00;72.85;;;32.70;;
18544;SDS011;9402;51.460;7.276;2023-12-07T04:06:02;64.75;;;31.92;;
18544;SDS011;9402;51.460;7.276;2023-12-07T04:08:03;77.55;;;33.45;;
18544;SDS011;9402;51.460;7.276;2023-12-07T04:10:06;99.47;;;38.45;;
18544;SDS011;9402;51.460;7.276;2023-12-07T04:12:08;71.03;;;33.10;;
18544;SDS011;9402;51.460;7.276;2023-12-07T04:14:09;62.45;;;31.05;;
18544;SDS011;9402;51.460;7.276;2023-12-07T04:16:10;58.60;;;32.07;;
18544;SDS011;9402;51.460;7.276;2023-12-07T04:18:12;70.65;;;32.00;;
18544;SDS011;9402;51.460;7.276;2023-12-07T04:20:15;65.25;;;30.08;;
18544;SDS011;9402;51.460;7.276;2023-12-07T04:22:17;61.35;;;30.60;;
18544;SDS011;9402;51.460;7.276;2023-12-07T04:24:18;71.57;;;31.42;;
18544;SDS011;9402;51.460;7.276;2023-12-07T04:26:20;63.75;;;30.40;;
18544;SDS011;9402;51.460;7.276;2023-12-07T04:28:21;98.85;;;36.10;;
18544;SDS011;9402;51.460;7.276;2023-12-07T04:30:23;84.88;;;33.53;;
18544;SDS011;9402;51.460;7.276;2023-12-07T04:32:24;76.53;;;32.95;;
18544;SDS011;9402;51.460;7.276;2023-12-07T04:34:26;65.50;;;31.25;;
18544;SDS011;9402;51.460;7.276;2023-12-07T04:36:29;79.53;;;33.33;;
18544;SDS011;9402;51.460;7.276;2023-12-07T04:38:31;72.88;;;31.27;;
18544;SDS011;9402;51.460;7.276;2023-12-07T04:40:33;61.42;;;31.05;;
18544;SDS011;9402;51.460;7.276;2023-12-07T04:42:35;84.28;;;34.80;;
18544;SDS011;9402;51.460;7.276;2023-12-07T04:44:36;87.88;;;34.28;;
18544;SDS011;9402;51.460;7.276;2023-12-07T04:46:38;84.25;;;33.20;;
18544;SDS011;9402;51.460;7.276;2023-12-07T04:48:39;64.23;;;30.20;;
18544;SDS011;9402;51.460;7.276;2023-12-07T04:50:40;68.10;;;31.90;;
18544;SDS011;9402;51.460;7.276;2023-12-07T04:52:43;69.07;;;30.70;;
18544;SDS011;9402;51.460;7.276;2023-12-07T04:54:45;63.80;;;32.17;;
18544;SDS011;9402;51.460;7.276;2023-12-07T04:56:47;72.68;;;32.05;;
18544;SDS011;9402;51.460;7.276;2023-12-07T04:58:48;64.32;;;28.98;;
18544;SDS011;9402;51.460;7.276;2023-12-07T05:00:50;58.00;;;26.13;;
18544;SDS011;9402;51.460;7.276;2023-12-07T05:02:51;53.28;;;27.90;;
18544;SDS011;9402;51.460;7.276;2023-12-07T05:04:53;61.50;;;28.45;;
18544;SDS011;9402;51.460;7.276;2023-12-07T05:06:54;59.70;;;28.63;;
18544;SDS011;9402;51.460;7.276;2023-12-07T05:08:57;68.82;;;30.83;;
18544;SDS011;9402;51.460;7.276;2023-12-07T05:10:58;55.40;;;27.70;;
18544;SDS011;9402;51.460;7.276;2023-12-07T05:13:00;58.85;;;29.10;;
18544;SDS011;9402;51.460;7.276;2023-12-07T05:15:02;47.35;;;25.10;;
18544;SDS011;9402;51.460;7.276;2023-12-07T05:17:04;51.17;;;26.08;;
18544;SDS011;9402;51.460;7.276;2023-12-07T05:19:05;50.47;;;27.30;;
18544;SDS011;9402;51.460;7.276;2023-12-07T05:21:07;55.03;;;25.90;;
18544;SDS011;9402;51.460;7.276;2023-12-07T05:23:08;50.13;;;25.35;;
18544;SDS011;9402;51.460;7.276;2023-12-07T05:25:11;59.78;;;28.85;;
18544;SDS011;9402;51.460;7.276;2023-12-07T05:27:13;46.33;;;25.38;;
18544;SDS011;9402;51.460;7.276;2023-12-07T05:29:15;46.45;;;25.20;;
18544;SDS011;9402;51.460;7.276;2023-12-07T05:31:16;54.65;;;28.75;;
18544;SDS011;9402;51.460;7.276;2023-12-07T05:33:17;48.07;;;26.07;;
18544;SDS011;9402;51.460;7.276;2023-12-07T05:35:19;48.20;;;25.95;;
18544;SDS011;9402;51.460;7.276;2023-12-07T05:37:20;49.33;;;24.45;;
18544;SDS011;9402;51.460;7.276;2023-12-07T05:39:22;45.83;;;25.27;;
18544;SDS011;9402;51.460;7.276;2023-12-07T05:41:25;49.53;;;25.38;;
18544;SDS011;9402;51.460;7.276;2023-12-07T05:43:26;65.32;;;27.10;;
18544;SDS011;9402;51.460;7.276;2023-12-07T05:45:27;52.67;;;25.77;;
18544;SDS011;9402;51.460;7.276;2023-12-07T05:47:29;47.05;;;25.70;;
18544;SDS011;9402;51.460;7.276;2023-12-07T05:49:30;45.33;;;24.40;;
18544;SDS011;9402;51.460;7.276;2023-12-07T05:51:32;53.70;;;25.65;;
18544;SDS011;9402;51.460;7.276;2023-12-07T05:53:33;49.20;;;24.63;;
18544;SDS011;9402;51.460;7.276;2023-12-07T05:55:34;42.45;;;23.92;;
18544;SDS011;9402;51.460;7.276;2023-12-07T05:57:37;57.00;;;27.25;;
18544;SDS011;9402;51.460;7.276;2023-12-07T05:59:38;47.22;;;24.85;;
18544;SDS011;9402;51.460;7.276;2023-12-07T06:01:39;44.85;;;24.42;;
18544;SDS011;9402;51.460;7.276;2023-12-07T06:03:41;46.83;;;26.17;;
18544;SDS011;9402;51.460;7.276;2023-12-07T06:05:43;52.22;;;25.88;;
18544;SDS011;9402;51.460;7.276;2023-12-07T06:07:46;48.58;;;23.35;;
18544;SDS011;9402;51.460;7.276;2023-12-07T06:09:48;38.80;;;23.05;;
18544;SDS011;9402;51.460;7.276;2023-12-07T06:11:49;43.45;;;24.05;;
18544;SDS011;9402;51.460;7.276;2023-12-07T06:13:52;55.87;;;24.73;;
18544;SDS011;9402;51.460;7.276;2023-12-07T06:15:55;47.53;;;24.30;;
18544;SDS011;9402;51.460;7.276;2023-12-07T06:17:56;53.55;;;26.63;;
18544;SDS011;9402;51.460;7.276;2023-12-07T06:19:59;63.53;;;28.38;;
18544;SDS011;9402;51.460;7.276;2023-12-07T06:22:00;41.38;;;24.60;;
18544;SDS011;9402;51.460;7.276;2023-12-07T06:24:02;45.47;;;24.25;;
18544;SDS011;9402;51.460;7.276;2023-12-07T06:26:04;49.08;;;26.15;;
18544;SDS011;9402;51.460;7.276;2023-12-07T06:28:05;58.00;;;27.75;;
18544;SDS011;9402;51.460;7.276;2023-12-07T06:30:09;55.00;;;26.70;;
18544;SDS011;9402;51.460;7.276;2023-12-07T06:32:10;41.15;;;22.98;;
18544;SDS011;9402;51.460;7.276;2023-12-07T06:34:12;56.35;;;27.92;;
18544;SDS011;9402;51.460;7.276;2023-12-07T06:36:17;52.88;;;26.45;;
18544;SDS011;9402;51.460;7.276;2023-12-07T06:38:18;47.38;;;25.23;;
18544;SDS011;9402;51.460;7.276;2023-12-07T06:40:20;53.78;;;27.30;;
18544;SDS011;9402;51.460;7.276;2023-12-07T06:42:22;51.05;;;26.70;;
18544;SDS011;9402;51.460;7.276;2023-12-07T06:44:23;51.58;;;28.20;;
18544;SDS011;9402;51.460;7.276;2023-12-07T06:46:25;54.40;;;27.57;;
18544;SDS011;9402;51.460;7.276;2023-12-07T06:48:27;51.95;;;27.23;;
18544;SDS011;9402;51.460;7.276;2023-12-07T06:50:28;56.92;;;27.58;;
18544;SDS011;9402;51.460;7.276;2023-12-07T06:52:30;54.90;;;27.13;;
18544;SDS011;9402;51.460;7.276;2023-12-07T06:54:32;59.83;;;27.25;;
18544;SDS011;9402;51.460;7.276;2023-12-07T06:56:34;55.05;;;27.55;;
18544;SDS011;9402;51.460;7.276;2023-12-07T06:58:35;51.90;;;26.08;;
18544;SDS011;9402;51.460;7.276;2023-12-07T07:00:37;53.60;;;26.05;;
18544;SDS011;9402;51.460;7.276;2023-12-07T07:02:39;64.67;;;27.27;;
18544;SDS011;9402;51.460;7.276;2023-12-07T07:04:41;52.00;;;26.95;;
18544;SDS011;9402;51.460;7.276;2023-12-07T07:06:44;46.42;;;25.00;;
18544;SDS011;9402;51.460;7.276;2023-12-07T07:08:45;51.80;;;25.45;;
18544;SDS011;9402;51.460;7.276;2023-12-07T07:10:46;57.73;;;26.70;;
18544;SDS011;9402;51.460;7.276;2023-12-07T07:12:48;59.70;;;26.17;;
18544;SDS011;9402;51.460;7.276;2023-12-07T07:14:50;55.47;;;27.15;;
18544;SDS011;9402;51.460;7.276;2023-12-07T07:16:51;61.60;;;27.00;;
18544;SDS011;9402;51.460;7.276;2023-12-07T07:18:54;51.10;;;26.13;;
18544;SDS011;9402;51.460;7.276;2023-12-07T07:20:56;62.15;;;28.05;;
18544;SDS011;9402;51.460;7.276;2023-12-07T07:22:57;53.53;;;27.48;;
18544;SDS011;9402;51.460;7.276;2023-12-07T07:24:59;56.78;;;28.15;;
18544;SDS011;9402;51.460;7.276;2023-12-07T07:27:00;65.70;;;29.77;;
18544;SDS011;9402;51.460;7.276;2023-12-07T07:29:02;66.40;;;26.65;;
18544;SDS011;9402;51.460;7.276;2023-12-07T07:31:04;55.42;;;27.65;;
18544;SDS011;9402;51.460;7.276;2023-12-07T07:33:06;61.78;;;27.75;;
18544;SDS011;9402;51.460;7.276;2023-12-07T07:35:09;57.83;;;27.13;;
18544;SDS011;9402;51.460;7.276;2023-12-07T07:37:11;46.92;;;24.20;;
18544;SDS011;9402;51.460;7.276;2023-12-07T07:39:13;46.47;;;21.55;;
18544;SDS011;9402;51.460;7.276;2023-12-07T07:41:15;43.22;;;22.38;;
18544;SDS011;9402;51.460;7.276;2023-12-07T07:43:16;48.75;;;22.60;;
18544;SDS011;9402;51.460;7.276;2023-12-07T07:45:18;46.50;;;25.00;;
18544;SDS011;9402;51.460;7.276;2023-12-07T07:47:19;48.20;;;24.05;;
18544;SDS011;9402;51.460;7.276;2023-12-07T07:49:21;55.60;;;25.52;;
18544;SDS011;9402;51.460;7.276;2023-12-07T07:51:25;48.95;;;24.88;;
18544;SDS011;9402;51.460;7.276;2023-12-07T07:53:26;45.38;;;23.30;;
18544;SDS011;9402;51.460;7.276;2023-12-07T07:55:27;47.30;;;23.27;;
18544;SDS011;9402;51.460;7.276;2023-12-07T07:57:28;54.92;;;24.75;;
18544;SDS011;9402;51.460;7.276;2023-12-07T07:59:30;45.92;;;23.90;;
18544;SDS011;9402;51.460;7.276;2023-12-07T08:01:32;50.50;;;23.70;;
18544;SDS011;9402;51.460;7.276;2023-12-07T08:03:33;44.42;;;25.63;;
18544;SDS011;9402;51.460;7.276;2023-12-07T08:05:35;49.78;;;24.02;;
18544;SDS011;9402;51.460;7.276;2023-12-07T08:07:38;55.90;;;28.35;;
18544;SDS011;9402;51.460;7.276;2023-12-07T08:09:40;61.95;;;27.92;;
18544;SDS011;9402;51.460;7.276;2023-12-07T08:11:41;64.33;;;28.17;;
18544;SDS011;9402;51.460;7.276;2023-12-07T08:13:42;55.05;;;26.05;;
18544;SDS011;9402;51.460;7.276;2023-12-07T08:15:44;45.30;;;23.80;;
18544;SDS011;9402;51.460;7.276;2023-12-07T08:17:45;54.65;;;24.65;;
18544;SDS011;9402;51.460;7.276;2023-12-07T08:19:46;37.40;;;20.20;;
18544;SDS011;9402;51.460;7.276;2023-12-07T08:21:48;44.35;;;22.02;;
18544;SDS011;9402;51.460;7.276;2023-12-07T08:23:52;37.20;;;21.17;;
18544;SDS011;9402;51.460;7.276;2023-12-07T08:25:55;43.58;;;22.20;;
18544;SDS011;9402;51.460;7.276;2023-12-07T08:27:57;46.00;;;23.02;;
18544;SDS011;9402;51.460;7.276;2023-12-07T08:29:59;53.40;;;24.35;;
18544;SDS011;9402;51.460;7.276;2023-12-07T08:32:01;44.92;;;23.90;;
18544;SDS011;9402;51.460;7.276;2023-12-07T08:34:02;60.35;;;25.50;;
18544;SDS011;9402;51.460;7.276;2023-12-07T08:36:04;53.03;;;27.30;;
18544;SDS011;9402;51.460;7.276;2023-12-07T08:38:06;49.60;;;26.60;;
18544;SDS011;9402;51.460;7.276;2023-12-07T08:40:10;57.30;;;29.67;;
18544;SDS011;9402;51.460;7.276;2023-12-07T08:42:15;66.88;;;31.75;;
18544;SDS011;9402;51.460;7.276;2023-12-07T08:44:16;55.90;;;30.10;;
18544;SDS011;9402;51.460;7.276;2023-12-07T08:46:17;49.63;;;27.70;;
18544;SDS011;9402;51.460;7.276;2023-12-07T08:48:19;55.25;;;28.98;;
18544;SDS011;9402;51.460;7.276;2023-12-07T08:50:20;55.60;;;31.55;;
18544;SDS011;9402;51.460;7.276;2023-12-07T08:52:22;58.55;;;31.35;;
18544;SDS011;9402;51.460;7.276;2023-12-07T08:54:23;52.08;;;29.52;;
18544;SDS011;9402;51.460;7.276;2023-12-07T08:56:26;60.03;;;31.42;;
18544;SDS011;9402;51.460;7.276;2023-12-07T08:58:28;48.42;;;26.98;;
18544;SDS011;9402;51.460;7.276;2023-12-07T09:00:30;50.92;;;31.05;;
18544;SDS011;9402;51.460;7.276;2023-12-07T09:02:32;56.42;;;29.45;;
18544;SDS011;9402;51.460;7.276;2023-12-07T09:04:32;50.53;;;27.67;;
18544;SDS011;9402;51.460;7.276;2023-12-07T09:06:34;48.65;;;27.60;;
18544;SDS011;9402;51.460;7.276;2023-12-07T09:08:37;54.80;;;29.80;;
18544;SDS011;9402;51.460;7.276;2023-12-07T09:10:38;50.72;;;26.23;;
18544;SDS011;9402;51.460;7.276;2023-12-07T09:12:42;53.03;;;29.42;;
18544;SDS011;9402;51.460;7.276;2023-12-07T09:14:43;53.33;;;29.95;;
18544;SDS011;9402;51.460;7.276;2023-12-07T09:16:45;54.72;;;30.83;;
18544;SDS011;9402;51.460;7.276;2023-12-07T09:18:47;48.58;;;26.85;;
18544;SDS011;9402;51.460;7.276;2023-12-07T09:20:47;54.60;;;29.23;;
18544;SDS011;9402;51.460;7.276;2023-12-07T09:22:49;46.22;;;27.42;;
18544;SDS011;9402;51.460;7.276;2023-12-07T09:24:51;52.45;;;26.42;;
18544;SDS011;9402;51.460;7.276;2023-12-07T09:26:53;46.08;;;27.27;;
18544;SDS011;9402;51.460;7.276;2023-12-07T09:28:56;44.92;;;27.02;;
18544;SDS011;9402;51.460;7.276;2023-12-07T09:30:57;50.28;;;28.80;;
18544;SDS011;9402;51.460;7.276;2023-12-07T09:32:59;47.85;;;26.20;;
18544;SDS011;9402;51.460;7.276;2023-12-07T09:35:03;44.40;;;24.52;;
18544;SDS011;9402;51.460;7.276;2023-12-07T09:37:05;37.78;;;23.95;;
18544;SDS011;9402;51.460;7.276;2023-12-07T09:39:07;40.40;;;23.38;;
18544;SDS011;9402;51.460;7.276;2023-12-07T09:41:10;43.92;;;26.30;;
18544;SDS011;9402;51.460;7.276;2023-12-07T09:43:12;47.63;;;25.73;;
18544;SDS011;9402;51.460;7.276;2023-12-07T09:45:15;36.30;;;23.08;;
18544;SDS011;9402;51.460;7.276;2023-12-07T09:47:18;36.45;;;21.83;;
18544;SDS011;9402;51.460;7.276;2023-12-07T09:49:20;38.80;;;20.63;;
18544;SDS011;9402;51.460;7.276;2023-12-07T09:51:22;30.85;;;19.25;;
18544;SDS011;9402;51.460;7.276;2023-12-07T09:53:24;28.67;;;19.52;;
18544;SDS011;9402;51.460;7.276;2023-12-07T09:55:25;28.80;;;19.00;;
18544;SDS011;9402;51.460;7.276;2023-12-07T09:57:26;38.27;;;19.17;;
18544;SDS011;9402;51.460;7.276;2023-12-07T09:59:27;27.30;;;17.45;;
18544;SDS011;9402;51.460;7.276;2023-12-07T10:01:30;24.48;;;16.65;;
18544;SDS011;9402;51.460;7.276;2023-12-07T10:03:32;31.42;;;17.40;;
18544;SDS011;9402;51.460;7.276;2023-12-07T10:05:34;26.80;;;17.33;;
18544;SDS011;9402;51.460;7.276;2023-12-07T10:07:36;31.20;;;16.98;;
18544;SDS011;9402;51.460;7.276;2023-12-07T10:09:38;29.10;;;18.40;;
18544;SDS011;9402;51.460;7.276;2023-12-07T10:11:40;30.65;;;16.60;;
18544;SDS011;9402;51.460;7.276;2023-12-07T10:13:43;30.20;;;17.92;;
18544;SDS011;9402;51.460;7.276;2023-12-07T10:15:44;36.03;;;18.40;;
18544;SDS011;9402;51.460;7.276;2023-12-07T10:17:47;30.60;;;17.40;;
18544;SDS011;9402;51.460;7.276;2023-12-07T10:22:12;29.25;;;18.10;;
18544;SDS011;9402;51.460;7.276;2023-12-07T10:24:14;25.80;;;16.58;;
18544;SDS011;9402;51.460;7.276;2023-12-07T10:26:17;26.17;;;16.00;;
18544;SDS011;9402;51.460;7.276;2023-12-07T10:28:20;25.27;;;17.98;;
18544;SDS011;9402;51.460;7.276;2023-12-07T10:30:21;24.48;;;16.13;;
18544;SDS011;9402;51.460;7.276;2023-12-07T10:32:25;28.00;;;15.60;;
18544;SDS011;9402;51.460;7.276;2023-12-07T10:34:28;28.48;;;14.48;;
18544;SDS011;9402;51.460;7.276;2023-12-07T10:36:30;29.02;;;16.10;;
18544;SDS011;9402;51.460;7.276;2023-12-07T10:38:33;19.00;;;13.32;;
18544;SDS011;9402;51.460;7.276;2023-12-07T10:40:35;19.67;;;14.45;;
18544;SDS011;9402;51.460;7.276;2023-12-07T10:42:35;18.47;;;12.33;;
18544;SDS011;9402;51.460;7.276;2023-12-07T10:44:39;19.70;;;12.73;;
18544;SDS011;9402;51.460;7.276;2023-12-07T10:46:42;19.55;;;12.85;;
18544;SDS011;9402;51.460;7.276;2023-12-07T10:48:44;18.80;;;11.40;;
18544;SDS011;9402;51.460;7.276;2023-12-07T10:50:49;24.30;;;12.35;;
18544;SDS011;9402;51.460;7.276;2023-12-07T10:52:52;24.83;;;12.57;;
18544;SDS011;9402;51.460;7.276;2023-12-07T10:54:57;19.77;;;12.48;;
18544;SDS011;9402;51.460;7.276;2023-12-07T10:57:01;18.65;;;10.70;;
18544;SDS011;9402;51.460;7.276;2023-12-07T10:59:06;19.35;;;11.70;;
18544;SDS011;9402;51.460;7.276;2023-12-07T11:01:10;20.98;;;11.82;;
18544;SDS011;9402;51.460;7.276;2023-12-07T11:03:14;17.20;;;10.23;;
18544;SDS011;9402;51.460;7.276;2023-12-07T11:05:17;15.80;;;9.48;;
18544;SDS011;9402;51.460;7.276;2023-12-07T11:07:20;16.90;;;9.20;;
18544;SDS011;9402;51.460;7.276;2023-12-07T11:09:23;17.70;;;11.07;;
18544;SDS011;9402;51.460;7.276;2023-12-07T11:11:28;17.77;;;10.30;;
18544;SDS011;9402;51.460;7.276;2023-12-07T11:13:31;17.95;;;10.25;;
18544;SDS011;9402;51.460;7.276;2023-12-07T11:15:35;15.65;;;10.60;;
18544;SDS011;9402;51.460;7.276;2023-12-07T11:17:52;17.75;;;11.77;;
18544;SDS011;9402;51.460;7.276;2023-12-07T11:19:55;17.88;;;10.50;;
18544;SDS011;9402;51.460;7.276;2023-12-07T11:21:57;12.05;;;9.20;;
18544;SDS011;9402;51.460;7.276;2023-12-07T11:24:00;24.35;;;11.45;;
18544;SDS011;9402;51.460;7.276;2023-12-07T11:26:02;13.70;;;9.68;;
18544;SDS011;9402;51.460;7.276;2023-12-07T11:28:03;12.97;;;8.53;;
18544;SDS011;9402;51.460;7.276;2023-12-07T11:30:06;19.45;;;10.23;;
18544;SDS011;9402;51.460;7.276;2023-12-07T11:32:09;13.43;;;8.52;;
18544;SDS011;9402;51.460;7.276;2023-12-07T11:34:11;15.38;;;9.43;;
18544;SDS011;9402;51.460;7.276;2023-12-07T11:36:14;11.85;;;7.82;;
18544;SDS011;9402;51.460;7.276;2023-12-07T11:38:15;24.17;;;8.73;;
18544;SDS011;9402;51.460;7.276;2023-12-07T11:40:20;13.55;;;9.18;;
18544;SDS011;9402;51.460;7.276;2023-12-07T11:42:21;10.38;;;8.30;;
18544;SDS011;9402;51.460;7.276;2023-12-07T11:44:24;14.88;;;10.20;;
18544;SDS011;9402;51.460;7.276;2023-12-07T11:46:26;15.88;;;9.15;;
18544;SDS011;9402;51.460;7.276;2023-12-07T11:48:27;16.70;;;9.23;;
18544;SDS011;9402;51.460;7.276;2023-12-07T11:50:29;17.80;;;9.10;;
18544;SDS011;9402;51.460;7.276;2023-12-07T11:52:30;14.70;;;9.77;;
18544;SDS011;9402;51.460;7.276;2023-12-07T11:54:32;16.80;;;9.52;;
18544;SDS011;9402;51.460;7.276;2023-12-07T11:56:35;17.45;;;10.18;;
18544;SDS011;9402;51.460;7.276;2023-12-07T11:58:37;21.48;;;11.23;;
18544;SDS011;9402;51.460;7.276;2023-12-07T12:00:39;14.88;;;10.38;;
18544;SDS011;9402;51.460;7.276;2023-12-07T12:02:40;15.95;;;10.70;;
18544;SDS011;9402;51.460;7.276;2023-12-07T12:04:41;19.67;;;10.65;;
18544;SDS011;9402;51.460;7.276;2023-12-07T12:06:43;18.07;;;11.80;;